sensor_id;sensor_type;location;lat;lon;timestamp;P1;durP1;ratioP1;P2;durP2;ratioP2
8683;SDS011;4379;59.744;18.206;2023-12-20T00:01:07;3.47;;;0.93;;
8683;SDS011;4379;59.744;18.206;2023-12-20T00:03:34;1.60;;;1.07;;
8683;SDS011;4379;59.744;18.206;2023-12-20T00:06:08;1.73;;;0.90;;
8683;SDS011;4379;59.744;18.206;2023-12-20T00:08:36;2.57;;;1.00;;
8683;SDS011;4379;59.744;18.206;2023-12-20T00:11:03;1.17;;;0.80;;
8683;SDS011;4379;59.744;18.206;2023-12-20T00:13:31;1.10;;;1.00;;
8683;SDS011;4379;59.744;18.206;2023-12-20T00:15:58;1.83;;;1.03;;
8683;SDS011;4379;59.744;18.206;2023-12-20T00:18:25;2.90;;;0.97;;
8683;SDS011;4379;59.744;18.206;2023-12-20T00:20:52;2.40;;;1.10;;
8683;SDS011;4379;59.744;18.206;2023-12-20T00:23:19;3.00;;;0.90;;
8683;SDS011;4379;59.744;18.206;2023-12-20T00:25:46;1.07;;;0.97;;
8683;SDS011;4379;59.744;18.206;2023-12-20T00:28:13;3.57;;;1.20;;
8683;SDS011;4379;59.744;18.206;2023-12-20T00:30:40;3.23;;;1.00;;
8683;SDS011;4379;59.744;18.206;2023-12-20T00:33:07;1.90;;;0.93;;
8683;SDS011;4379;59.744;18.206;2023-12-20T00:35:35;2.50;;;0.83;;
8683;SDS011;4379;59.744;18.206;2023-12-20T00:38:02;1.60;;;1.10;;
8683;SDS011;4379;59.744;18.206;2023-12-20T00:40:29;3.57;;;0.90;;
8683;SDS011;4379;59.744;18.206;2023-12-20T00:42:56;1.87;;;0.97;;
8683;SDS011;4379;59.744;18.206;2023-12-20T00:45:23;1.83;;;0.70;;
8683;SDS011;4379;59.744;18.206;2023-12-20T00:47:50;3.07;;;1.20;;
8683;SDS011;4379;59.744;18.206;2023-12-20T00:50:17;3.23;;;1.00;;
8683;SDS011;4379;59.744;18.206;2023-12-20T00:52:44;2.53;;;1.00;;
8683;SDS011;4379;59.744;18.206;2023-12-20T00:55:12;1.33;;;0.90;;
8683;SDS011;4379;59.744;18.206;2023-12-20T00:57:40;2.33;;;1.23;;
8683;SDS011;4379;59.744;18.206;2023-12-20T01:00:07;3.97;;;1.10;;
8683;SDS011;4379;59.744;18.206;2023-12-20T01:02:37;2.70;;;1.33;;
8683;SDS011;4379;59.744;18.206;2023-12-20T01:05:04;1.13;;;1.00;;
8683;SDS011;4379;59.744;18.206;2023-12-20T01:07:32;0.87;;;0.87;;
8683;SDS011;4379;59.744;18.206;2023-12-20T01:09:59;1.83;;;1.40;;
8683;SDS011;4379;59.744;18.206;2023-12-20T01:12:26;1.30;;;1.07;;
8683;SDS011;4379;59.744;18.206;2023-12-20T01:14:53;2.70;;;1.23;;
8683;SDS011;4379;59.744;18.206;2023-12-20T01:17:20;4.47;;;1.50;;
8683;SDS011;4379;59.744;18.206;2023-12-20T01:19:47;2.90;;;1.23;;
8683;SDS011;4379;59.744;18.206;2023-12-20T01:22:14;2.90;;;1.13;;
8683;SDS011;4379;59.744;18.206;2023-12-20T01:24:41;3.63;;;1.13;;
8683;SDS011;4379;59.744;18.206;2023-12-20T01:27:09;6.67;;;1.37;;
8683;SDS011;4379;59.744;18.206;2023-12-20T01:29:36;3.43;;;1.30;;
8683;SDS011;4379;59.744;18.206;2023-12-20T01:32:03;4.23;;;1.07;;
8683;SDS011;4379;59.744;18.206;2023-12-20T01:34:30;2.67;;;0.90;;
8683;SDS011;4379;59.744;18.206;2023-12-20T01:36:57;3.87;;;1.07;;
8683;SDS011;4379;59.744;18.206;2023-12-20T01:39:24;1.80;;;1.07;;
8683;SDS011;4379;59.744;18.206;2023-12-20T01:41:55;4.70;;;1.00;;
8683;SDS011;4379;59.744;18.206;2023-12-20T01:44:22;1.07;;;1.00;;
8683;SDS011;4379;59.744;18.206;2023-12-20T01:46:49;2.97;;;1.17;;
8683;SDS011;4379;59.744;18.206;2023-12-20T01:49:16;4.00;;;1.10;;
8683;SDS011;4379;59.744;18.206;2023-12-20T01:51:43;2.13;;;0.90;;
8683;SDS011;4379;59.744;18.206;2023-12-20T01:54:11;2.83;;;1.50;;
8683;SDS011;4379;59.744;18.206;2023-12-20T01:56:39;3.30;;;1.17;;
8683;SDS011;4379;59.744;18.206;2023-12-20T01:59:06;3.20;;;1.40;;
8683;SDS011;4379;59.744;18.206;2023-12-20T02:01:35;3.30;;;1.50;;
8683;SDS011;4379;59.744;18.206;2023-12-20T02:04:03;4.37;;;1.40;;
8683;SDS011;4379;59.744;18.206;2023-12-20T02:06:30;2.07;;;1.20;;
8683;SDS011;4379;59.744;18.206;2023-12-20T02:09:00;3.90;;;1.10;;
8683;SDS011;4379;59.744;18.206;2023-12-20T02:11:27;1.50;;;1.23;;
8683;SDS011;4379;59.744;18.206;2023-12-20T02:13:55;3.13;;;1.13;;
8683;SDS011;4379;59.744;18.206;2023-12-20T02:16:22;1.80;;;1.07;;
8683;SDS011;4379;59.744;18.206;2023-12-20T02:18:49;5.37;;;1.43;;
8683;SDS011;4379;59.744;18.206;2023-12-20T02:21:16;4.17;;;1.20;;
8683;SDS011;4379;59.744;18.206;2023-12-20T02:23:43;2.20;;;1.10;;
8683;SDS011;4379;59.744;18.206;2023-12-20T02:26:10;2.83;;;1.30;;
8683;SDS011;4379;59.744;18.206;2023-12-20T02:28:40;3.77;;;1.37;;
8683;SDS011;4379;59.744;18.206;2023-12-20T02:31:07;4.10;;;1.40;;
8683;SDS011;4379;59.744;18.206;2023-12-20T02:33:34;7.60;;;1.30;;
8683;SDS011;4379;59.744;18.206;2023-12-20T02:36:01;4.87;;;1.50;;
8683;SDS011;4379;59.744;18.206;2023-12-20T02:38:28;5.70;;;1.50;;
8683;SDS011;4379;59.744;18.206;2023-12-20T02:40:55;3.83;;;1.50;;
8683;SDS011;4379;59.744;18.206;2023-12-20T02:43:22;6.90;;;1.83;;
8683;SDS011;4379;59.744;18.206;2023-12-20T02:45:49;7.47;;;2.37;;
8683;SDS011;4379;59.744;18.206;2023-12-20T02:48:17;3.13;;;1.60;;
8683;SDS011;4379;59.744;18.206;2023-12-20T02:50:45;5.60;;;1.50;;
8683;SDS011;4379;59.744;18.206;2023-12-20T02:53:13;2.23;;;1.40;;
8683;SDS011;4379;59.744;18.206;2023-12-20T02:55:40;4.60;;;1.70;;
8683;SDS011;4379;59.744;18.206;2023-12-20T02:58:07;6.00;;;1.47;;
8683;SDS011;4379;59.744;18.206;2023-12-20T03:00:34;5.07;;;1.87;;
8683;SDS011;4379;59.744;18.206;2023-12-20T03:03:01;3.27;;;1.87;;
8683;SDS011;4379;59.744;18.206;2023-12-20T03:05:28;4.77;;;1.63;;
8683;SDS011;4379;59.744;18.206;2023-12-20T03:07:55;4.20;;;1.60;;
8683;SDS011;4379;59.744;18.206;2023-12-20T03:10:22;3.13;;;1.43;;
8683;SDS011;4379;59.744;18.206;2023-12-20T03:12:53;3.77;;;1.47;;
8683;SDS011;4379;59.744;18.206;2023-12-20T03:15:20;4.60;;;1.43;;
8683;SDS011;4379;59.744;18.206;2023-12-20T03:17:46;4.37;;;1.60;;
8683;SDS011;4379;59.744;18.206;2023-12-20T03:20:14;8.50;;;1.40;;
8683;SDS011;4379;59.744;18.206;2023-12-20T03:22:41;3.50;;;1.57;;
8683;SDS011;4379;59.744;18.206;2023-12-20T03:25:08;6.97;;;1.70;;
8683;SDS011;4379;59.744;18.206;2023-12-20T03:27:38;4.60;;;1.93;;
8683;SDS011;4379;59.744;18.206;2023-12-20T03:30:05;5.77;;;2.10;;
8683;SDS011;4379;59.744;18.206;2023-12-20T03:32:33;8.97;;;2.27;;
8683;SDS011;4379;59.744;18.206;2023-12-20T03:35:00;9.93;;;2.20;;
8683;SDS011;4379;59.744;18.206;2023-12-20T03:37:27;4.87;;;2.00;;
8683;SDS011;4379;59.744;18.206;2023-12-20T03:39:54;9.33;;;1.77;;
8683;SDS011;4379;59.744;18.206;2023-12-20T03:42:21;6.53;;;1.80;;
8683;SDS011;4379;59.744;18.206;2023-12-20T03:44:49;6.73;;;1.63;;
8683;SDS011;4379;59.744;18.206;2023-12-20T03:47:15;8.10;;;1.70;;
8683;SDS011;4379;59.744;18.206;2023-12-20T03:49:42;5.60;;;1.80;;
8683;SDS011;4379;59.744;18.206;2023-12-20T03:52:09;7.33;;;2.63;;
8683;SDS011;4379;59.744;18.206;2023-12-20T03:54:36;11.67;;;2.30;;
8683;SDS011;4379;59.744;18.206;2023-12-20T03:57:04;7.23;;;1.90;;
8683;SDS011;4379;59.744;18.206;2023-12-20T03:59:34;5.70;;;2.00;;
8683;SDS011;4379;59.744;18.206;2023-12-20T04:02:03;8.23;;;1.97;;
8683;SDS011;4379;59.744;18.206;2023-12-20T04:04:30;9.67;;;2.30;;
8683;SDS011;4379;59.744;18.206;2023-12-20T04:06:57;5.30;;;2.03;;
8683;SDS011;4379;59.744;18.206;2023-12-20T04:09:25;7.10;;;2.20;;
8683;SDS011;4379;59.744;18.206;2023-12-20T04:11:51;10.77;;;2.20;;
8683;SDS011;4379;59.744;18.206;2023-12-20T04:14:18;6.97;;;1.73;;
8683;SDS011;4379;59.744;18.206;2023-12-20T04:16:45;8.50;;;1.93;;
8683;SDS011;4379;59.744;18.206;2023-12-20T04:19:13;8.33;;;2.23;;
8683;SDS011;4379;59.744;18.206;2023-12-20T04:21:40;9.37;;;2.43;;
8683;SDS011;4379;59.744;18.206;2023-12-20T04:24:07;5.07;;;1.93;;
8683;SDS011;4379;59.744;18.206;2023-12-20T04:26:34;5.43;;;1.70;;
8683;SDS011;4379;59.744;18.206;2023-12-20T04:29:01;6.90;;;2.07;;
8683;SDS011;4379;59.744;18.206;2023-12-20T04:31:28;8.73;;;2.40;;
8683;SDS011;4379;59.744;18.206;2023-12-20T04:33:55;7.67;;;2.40;;
8683;SDS011;4379;59.744;18.206;2023-12-20T04:36:23;6.83;;;2.07;;
8683;SDS011;4379;59.744;18.206;2023-12-20T04:38:51;7.17;;;2.43;;
8683;SDS011;4379;59.744;18.206;2023-12-20T04:41:18;7.97;;;2.40;;
8683;SDS011;4379;59.744;18.206;2023-12-20T04:43:45;9.83;;;2.17;;
8683;SDS011;4379;59.744;18.206;2023-12-20T04:46:12;7.53;;;2.10;;
8683;SDS011;4379;59.744;18.206;2023-12-20T04:48:39;5.97;;;2.13;;
8683;SDS011;4379;59.744;18.206;2023-12-20T04:51:06;7.47;;;2.23;;
8683;SDS011;4379;59.744;18.206;2023-12-20T04:53:33;13.40;;;2.87;;
8683;SDS011;4379;59.744;18.206;2023-12-20T04:56:00;7.67;;;2.07;;
8683;SDS011;4379;59.744;18.206;2023-12-20T04:58:27;7.87;;;2.70;;
8683;SDS011;4379;59.744;18.206;2023-12-20T05:00:55;12.23;;;2.63;;
8683;SDS011;4379;59.744;18.206;2023-12-20T05:03:22;7.73;;;2.33;;
8683;SDS011;4379;59.744;18.206;2023-12-20T05:05:49;10.57;;;2.23;;
8683;SDS011;4379;59.744;18.206;2023-12-20T05:08:15;13.37;;;2.53;;
8683;SDS011;4379;59.744;18.206;2023-12-20T05:10:42;8.73;;;2.30;;
8683;SDS011;4379;59.744;18.206;2023-12-20T05:13:10;11.00;;;3.00;;
8683;SDS011;4379;59.744;18.206;2023-12-20T05:15:37;10.17;;;2.50;;
8683;SDS011;4379;59.744;18.206;2023-12-20T05:18:04;10.40;;;2.43;;
8683;SDS011;4379;59.744;18.206;2023-12-20T05:20:31;8.47;;;2.40;;
8683;SDS011;4379;59.744;18.206;2023-12-20T05:22:58;7.40;;;2.53;;
8683;SDS011;4379;59.744;18.206;2023-12-20T05:25:25;11.30;;;2.60;;
8683;SDS011;4379;59.744;18.206;2023-12-20T05:27:52;9.30;;;2.40;;
8683;SDS011;4379;59.744;18.206;2023-12-20T05:30:19;12.93;;;2.77;;
8683;SDS011;4379;59.744;18.206;2023-12-20T05:32:47;13.10;;;2.73;;
8683;SDS011;4379;59.744;18.206;2023-12-20T05:35:14;9.23;;;2.40;;
8683;SDS011;4379;59.744;18.206;2023-12-20T05:37:41;8.97;;;2.90;;
8683;SDS011;4379;59.744;18.206;2023-12-20T05:40:09;10.63;;;2.80;;
8683;SDS011;4379;59.744;18.206;2023-12-20T05:42:37;13.83;;;3.17;;
8683;SDS011;4379;59.744;18.206;2023-12-20T05:45:04;10.70;;;2.90;;
8683;SDS011;4379;59.744;18.206;2023-12-20T05:47:32;11.77;;;2.87;;
8683;SDS011;4379;59.744;18.206;2023-12-20T05:49:59;9.37;;;2.47;;
8683;SDS011;4379;59.744;18.206;2023-12-20T05:52:26;10.40;;;3.53;;
8683;SDS011;4379;59.744;18.206;2023-12-20T05:54:53;13.80;;;3.87;;
8683;SDS011;4379;59.744;18.206;2023-12-20T05:57:20;11.87;;;5.30;;
8683;SDS011;4379;59.744;18.206;2023-12-20T05:59:47;13.20;;;4.90;;
8683;SDS011;4379;59.744;18.206;2023-12-20T06:02:14;14.17;;;5.20;;
8683;SDS011;4379;59.744;18.206;2023-12-20T06:04:44;14.93;;;5.90;;
8683;SDS011;4379;59.744;18.206;2023-12-20T06:07:12;15.77;;;5.73;;
8683;SDS011;4379;59.744;18.206;2023-12-20T06:09:39;9.83;;;5.60;;
8683;SDS011;4379;59.744;18.206;2023-12-20T06:12:07;11.23;;;5.67;;
8683;SDS011;4379;59.744;18.206;2023-12-20T06:14:34;9.53;;;5.37;;
8683;SDS011;4379;59.744;18.206;2023-12-20T06:17:01;15.53;;;5.90;;
8683;SDS011;4379;59.744;18.206;2023-12-20T06:19:28;10.07;;;6.07;;
8683;SDS011;4379;59.744;18.206;2023-12-20T06:21:56;11.43;;;6.23;;
8683;SDS011;4379;59.744;18.206;2023-12-20T06:24:23;9.67;;;6.27;;
8683;SDS011;4379;59.744;18.206;2023-12-20T06:26:54;14.07;;;6.53;;
8683;SDS011;4379;59.744;18.206;2023-12-20T06:29:21;19.97;;;7.70;;
8683;SDS011;4379;59.744;18.206;2023-12-20T06:31:49;14.83;;;7.07;;
8683;SDS011;4379;59.744;18.206;2023-12-20T06:34:16;16.60;;;7.60;;
8683;SDS011;4379;59.744;18.206;2023-12-20T06:36:43;13.17;;;6.77;;
8683;SDS011;4379;59.744;18.206;2023-12-20T06:39:10;14.53;;;7.30;;
8683;SDS011;4379;59.744;18.206;2023-12-20T06:41:39;14.40;;;7.50;;
8683;SDS011;4379;59.744;18.206;2023-12-20T06:44:06;16.83;;;8.53;;
8683;SDS011;4379;59.744;18.206;2023-12-20T06:46:33;14.60;;;6.87;;
8683;SDS011;4379;59.744;18.206;2023-12-20T06:49:00;10.90;;;6.80;;
8683;SDS011;4379;59.744;18.206;2023-12-20T06:51:27;19.87;;;7.23;;
8683;SDS011;4379;59.744;18.206;2023-12-20T06:53:54;11.03;;;6.63;;
8683;SDS011;4379;59.744;18.206;2023-12-20T06:56:21;26.20;;;7.03;;
8683;SDS011;4379;59.744;18.206;2023-12-20T06:58:48;7.37;;;6.23;;
8683;SDS011;4379;59.744;18.206;2023-12-20T07:01:15;12.63;;;6.83;;
8683;SDS011;4379;59.744;18.206;2023-12-20T07:03:43;11.67;;;6.43;;
8683;SDS011;4379;59.744;18.206;2023-12-20T07:06:10;10.20;;;5.93;;
8683;SDS011;4379;59.744;18.206;2023-12-20T07:08:38;10.67;;;5.60;;
8683;SDS011;4379;59.744;18.206;2023-12-20T07:11:06;9.00;;;5.50;;
8683;SDS011;4379;59.744;18.206;2023-12-20T07:13:33;38.87;;;18.93;;
8683;SDS011;4379;59.744;18.206;2023-12-20T07:16:00;21.50;;;7.27;;
8683;SDS011;4379;59.744;18.206;2023-12-20T07:18:27;6.73;;;5.23;;
8683;SDS011;4379;59.744;18.206;2023-12-20T07:20:54;23.90;;;7.63;;
8683;SDS011;4379;59.744;18.206;2023-12-20T07:23:22;49.87;;;22.67;;
8683;SDS011;4379;59.744;18.206;2023-12-20T07:25:49;35.87;;;9.47;;
8683;SDS011;4379;59.744;18.206;2023-12-20T07:28:16;26.30;;;5.93;;
8683;SDS011;4379;59.744;18.206;2023-12-20T07:30:43;11.37;;;5.00;;
8683;SDS011;4379;59.744;18.206;2023-12-20T07:33:10;16.40;;;5.47;;
8683;SDS011;4379;59.744;18.206;2023-12-20T07:35:39;6.60;;;4.73;;
8683;SDS011;4379;59.744;18.206;2023-12-20T07:38:06;12.67;;;4.50;;
8683;SDS011;4379;59.744;18.206;2023-12-20T07:40:33;13.77;;;4.50;;
8683;SDS011;4379;59.744;18.206;2023-12-20T07:43:00;30.53;;;4.77;;
8683;SDS011;4379;59.744;18.206;2023-12-20T07:45:27;12.63;;;3.13;;
8683;SDS011;4379;59.744;18.206;2023-12-20T07:47:54;54.47;;;6.20;;
8683;SDS011;4379;59.744;18.206;2023-12-20T07:50:21;30.87;;;5.37;;
8683;SDS011;4379;59.744;18.206;2023-12-20T07:52:48;51.70;;;5.20;;
8683;SDS011;4379;59.744;18.206;2023-12-20T07:55:15;13.63;;;3.17;;
8683;SDS011;4379;59.744;18.206;2023-12-20T07:57:42;10.70;;;3.97;;
8683;SDS011;4379;59.744;18.206;2023-12-20T08:00:10;6.87;;;3.70;;
8683;SDS011;4379;59.744;18.206;2023-12-20T08:02:37;10.03;;;3.63;;
8683;SDS011;4379;59.744;18.206;2023-12-20T08:05:04;11.43;;;3.90;;
8683;SDS011;4379;59.744;18.206;2023-12-20T08:07:32;7.83;;;3.83;;
8683;SDS011;4379;59.744;18.206;2023-12-20T08:09:59;3.47;;;3.00;;
8683;SDS011;4379;59.744;18.206;2023-12-20T08:12:26;5.07;;;2.80;;
8683;SDS011;4379;59.744;18.206;2023-12-20T08:14:54;36.27;;;4.70;;
8683;SDS011;4379;59.744;18.206;2023-12-20T08:17:21;7.27;;;2.67;;
8683;SDS011;4379;59.744;18.206;2023-12-20T08:19:49;5.93;;;2.87;;
8683;SDS011;4379;59.744;18.206;2023-12-20T08:22:17;3.23;;;2.93;;
8683;SDS011;4379;59.744;18.206;2023-12-20T08:24:44;9.20;;;3.30;;
8683;SDS011;4379;59.744;18.206;2023-12-20T08:27:11;5.00;;;3.40;;
8683;SDS011;4379;59.744;18.206;2023-12-20T08:29:38;19.87;;;4.17;;
8683;SDS011;4379;59.744;18.206;2023-12-20T08:32:05;36.60;;;5.43;;
8683;SDS011;4379;59.744;18.206;2023-12-20T08:34:32;17.07;;;4.63;;
8683;SDS011;4379;59.744;18.206;2023-12-20T08:37:00;9.77;;;4.23;;
8683;SDS011;4379;59.744;18.206;2023-12-20T08:39:27;5.40;;;4.37;;
8683;SDS011;4379;59.744;18.206;2023-12-20T08:41:56;13.33;;;4.73;;
8683;SDS011;4379;59.744;18.206;2023-12-20T08:44:23;10.20;;;5.27;;
8683;SDS011;4379;59.744;18.206;2023-12-20T08:46:50;10.43;;;4.67;;
8683;SDS011;4379;59.744;18.206;2023-12-20T08:49:17;24.03;;;6.87;;
8683;SDS011;4379;59.744;18.206;2023-12-20T08:51:45;7.07;;;5.93;;
8683;SDS011;4379;59.744;18.206;2023-12-20T08:54:12;11.43;;;6.37;;
8683;SDS011;4379;59.744;18.206;2023-12-20T08:56:39;22.63;;;6.80;;
8683;SDS011;4379;59.744;18.206;2023-12-20T08:59:06;20.43;;;6.87;;
8683;SDS011;4379;59.744;18.206;2023-12-20T09:01:33;23.60;;;5.87;;
8683;SDS011;4379;59.744;18.206;2023-12-20T09:04:00;5.60;;;5.10;;
8683;SDS011;4379;59.744;18.206;2023-12-20T09:06:27;30.07;;;6.63;;
8683;SDS011;4379;59.744;18.206;2023-12-20T09:08:55;12.93;;;4.90;;
8683;SDS011;4379;59.744;18.206;2023-12-20T09:11:22;45.17;;;5.97;;
8683;SDS011;4379;59.744;18.206;2023-12-20T09:13:49;39.00;;;6.53;;
8683;SDS011;4379;59.744;18.206;2023-12-20T09:16:16;21.13;;;5.27;;
8683;SDS011;4379;59.744;18.206;2023-12-20T09:18:43;27.90;;;5.60;;
8683;SDS011;4379;59.744;18.206;2023-12-20T09:21:11;19.10;;;4.77;;
8683;SDS011;4379;59.744;18.206;2023-12-20T09:23:38;7.23;;;4.20;;
8683;SDS011;4379;59.744;18.206;2023-12-20T09:26:06;5.17;;;4.27;;
8683;SDS011;4379;59.744;18.206;2023-12-20T09:28:33;13.13;;;4.90;;
8683;SDS011;4379;59.744;18.206;2023-12-20T09:31:04;20.67;;;4.60;;
8683;SDS011;4379;59.744;18.206;2023-12-20T09:33:32;21.57;;;6.03;;
8683;SDS011;4379;59.744;18.206;2023-12-20T09:36:00;15.13;;;5.63;;
8683;SDS011;4379;59.744;18.206;2023-12-20T09:38:27;18.40;;;5.60;;
8683;SDS011;4379;59.744;18.206;2023-12-20T09:40:55;7.80;;;4.93;;
8683;SDS011;4379;59.744;18.206;2023-12-20T09:43:23;5.50;;;4.47;;
8683;SDS011;4379;59.744;18.206;2023-12-20T09:45:52;32.07;;;5.83;;
8683;SDS011;4379;59.744;18.206;2023-12-20T09:48:20;4.70;;;4.30;;
8683;SDS011;4379;59.744;18.206;2023-12-20T09:50:47;5.53;;;4.53;;
8683;SDS011;4379;59.744;18.206;2023-12-20T09:53:19;4.90;;;4.50;;
8683;SDS011;4379;59.744;18.206;2023-12-20T09:55:47;29.30;;;5.33;;
8683;SDS011;4379;59.744;18.206;2023-12-20T09:58:15;7.67;;;4.47;;
8683;SDS011;4379;59.744;18.206;2023-12-20T10:00:46;4.73;;;4.30;;
8683;SDS011;4379;59.744;18.206;2023-12-20T10:03:13;6.90;;;4.10;;
8683;SDS011;4379;59.744;18.206;2023-12-20T10:05:42;4.43;;;4.03;;
8683;SDS011;4379;59.744;18.206;2023-12-20T10:08:11;4.57;;;3.70;;
8683;SDS011;4379;59.744;18.206;2023-12-20T10:10:38;6.10;;;4.00;;
8683;SDS011;4379;59.744;18.206;2023-12-20T10:13:14;4.97;;;3.93;;
8683;SDS011;4379;59.744;18.206;2023-12-20T10:15:42;4.00;;;3.70;;
8683;SDS011;4379;59.744;18.206;2023-12-20T10:18:09;3.60;;;3.40;;
8683;SDS011;4379;59.744;18.206;2023-12-20T10:20:39;7.73;;;4.13;;
8683;SDS011;4379;59.744;18.206;2023-12-20T10:23:07;3.60;;;3.40;;
8683;SDS011;4379;59.744;18.206;2023-12-20T10:25:34;4.27;;;3.87;;
8683;SDS011;4379;59.744;18.206;2023-12-20T10:28:14;3.73;;;3.40;;
8683;SDS011;4379;59.744;18.206;2023-12-20T10:30:47;5.03;;;3.60;;
8683;SDS011;4379;59.744;18.206;2023-12-20T10:33:23;3.87;;;3.40;;
8683;SDS011;4379;59.744;18.206;2023-12-20T10:35:53;3.77;;;3.47;;
8683;SDS011;4379;59.744;18.206;2023-12-20T10:38:20;3.77;;;3.50;;
8683;SDS011;4379;59.744;18.206;2023-12-20T10:40:48;3.97;;;3.57;;
8683;SDS011;4379;59.744;18.206;2023-12-20T10:43:20;4.20;;;3.80;;
8683;SDS011;4379;59.744;18.206;2023-12-20T10:45:49;4.00;;;3.60;;
8683;SDS011;4379;59.744;18.206;2023-12-20T10:48:16;4.57;;;4.03;;
8683;SDS011;4379;59.744;18.206;2023-12-20T10:50:43;6.23;;;4.20;;
8683;SDS011;4379;59.744;18.206;2023-12-20T10:53:11;4.97;;;4.47;;
8683;SDS011;4379;59.744;18.206;2023-12-20T10:55:40;4.37;;;3.97;;
8683;SDS011;4379;59.744;18.206;2023-12-20T10:58:09;4.77;;;3.83;;
8683;SDS011;4379;59.744;18.206;2023-12-20T11:00:40;3.80;;;3.50;;
8683;SDS011;4379;59.744;18.206;2023-12-20T11:03:10;4.13;;;3.60;;
8683;SDS011;4379;59.744;18.206;2023-12-20T11:11:04;4.53;;;4.13;;
8683;SDS011;4379;59.744;18.206;2023-12-20T11:13:53;4.10;;;3.57;;
8683;SDS011;4379;59.744;18.206;2023-12-20T11:16:32;5.17;;;3.13;;
8683;SDS011;4379;59.744;18.206;2023-12-20T11:19:13;6.40;;;3.70;;
8683;SDS011;4379;59.744;18.206;2023-12-20T11:21:40;6.23;;;3.43;;
8683;SDS011;4379;59.744;18.206;2023-12-20T11:24:08;3.40;;;3.10;;
8683;SDS011;4379;59.744;18.206;2023-12-20T11:26:36;4.30;;;3.43;;
8683;SDS011;4379;59.744;18.206;2023-12-20T11:31:55;4.80;;;3.80;;
8683;SDS011;4379;59.744;18.206;2023-12-20T11:34:23;3.87;;;3.57;;
8683;SDS011;4379;59.744;18.206;2023-12-20T11:36:57;4.33;;;3.70;;
8683;SDS011;4379;59.744;18.206;2023-12-20T11:39:26;6.30;;;3.87;;
8683;SDS011;4379;59.744;18.206;2023-12-20T11:41:55;4.33;;;3.57;;
8683;SDS011;4379;59.744;18.206;2023-12-20T11:44:25;5.07;;;4.63;;
8683;SDS011;4379;59.744;18.206;2023-12-20T11:46:52;6.80;;;4.17;;
8683;SDS011;4379;59.744;18.206;2023-12-20T11:49:23;4.47;;;4.00;;
8683;SDS011;4379;59.744;18.206;2023-12-20T11:51:51;8.50;;;4.40;;
8683;SDS011;4379;59.744;18.206;2023-12-20T11:54:18;6.03;;;4.10;;
8683;SDS011;4379;59.744;18.206;2023-12-20T11:56:46;6.33;;;4.20;;
8683;SDS011;4379;59.744;18.206;2023-12-20T11:59:14;5.37;;;4.07;;
8683;SDS011;4379;59.744;18.206;2023-12-20T12:01:49;6.70;;;4.00;;
8683;SDS011;4379;59.744;18.206;2023-12-20T12:04:17;4.80;;;3.60;;
8683;SDS011;4379;59.744;18.206;2023-12-20T12:06:45;4.43;;;3.70;;
8683;SDS011;4379;59.744;18.206;2023-12-20T12:09:13;4.10;;;3.70;;
8683;SDS011;4379;59.744;18.206;2023-12-20T12:11:39;4.50;;;4.10;;
8683;SDS011;4379;59.744;18.206;2023-12-20T12:14:07;7.23;;;3.63;;
8683;SDS011;4379;59.744;18.206;2023-12-20T12:16:34;4.40;;;4.00;;
8683;SDS011;4379;59.744;18.206;2023-12-20T12:19:01;5.83;;;4.17;;
8683;SDS011;4379;59.744;18.206;2023-12-20T12:21:28;4.37;;;3.67;;
8683;SDS011;4379;59.744;18.206;2023-12-20T12:24:06;4.37;;;3.93;;
8683;SDS011;4379;59.744;18.206;2023-12-20T12:26:34;7.57;;;4.07;;
8683;SDS011;4379;59.744;18.206;2023-12-20T12:29:01;5.63;;;4.13;;
8683;SDS011;4379;59.744;18.206;2023-12-20T12:31:28;4.77;;;3.70;;
8683;SDS011;4379;59.744;18.206;2023-12-20T12:33:57;4.70;;;4.40;;
8683;SDS011;4379;59.744;18.206;2023-12-20T12:36:24;5.07;;;3.43;;
8683;SDS011;4379;59.744;18.206;2023-12-20T12:38:51;5.30;;;3.73;;
8683;SDS011;4379;59.744;18.206;2023-12-20T12:41:18;4.23;;;3.77;;
8683;SDS011;4379;59.744;18.206;2023-12-20T12:43:46;4.17;;;3.50;;
8683;SDS011;4379;59.744;18.206;2023-12-20T12:46:13;4.27;;;3.73;;
8683;SDS011;4379;59.744;18.206;2023-12-20T12:48:40;6.93;;;3.43;;
8683;SDS011;4379;59.744;18.206;2023-12-20T12:51:10;5.00;;;3.40;;
8683;SDS011;4379;59.744;18.206;2023-12-20T12:53:40;4.40;;;2.90;;
8683;SDS011;4379;59.744;18.206;2023-12-20T12:56:07;3.73;;;3.23;;
8683;SDS011;4379;59.744;18.206;2023-12-20T12:58:34;4.00;;;3.23;;
8683;SDS011;4379;59.744;18.206;2023-12-20T13:01:02;6.93;;;3.13;;
8683;SDS011;4379;59.744;18.206;2023-12-20T13:03:30;3.20;;;3.00;;
8683;SDS011;4379;59.744;18.206;2023-12-20T13:05:57;3.90;;;3.50;;
8683;SDS011;4379;59.744;18.206;2023-12-20T13:08:25;4.27;;;3.63;;
8683;SDS011;4379;59.744;18.206;2023-12-20T13:10:52;3.93;;;3.10;;
8683;SDS011;4379;59.744;18.206;2023-12-20T13:13:19;4.27;;;3.30;;
8683;SDS011;4379;59.744;18.206;2023-12-20T13:15:46;4.40;;;3.70;;
8683;SDS011;4379;59.744;18.206;2023-12-20T13:18:18;3.50;;;3.20;;
8683;SDS011;4379;59.744;18.206;2023-12-20T13:20:45;4.20;;;3.80;;
8683;SDS011;4379;59.744;18.206;2023-12-20T13:23:12;4.67;;;4.30;;
8683;SDS011;4379;59.744;18.206;2023-12-20T13:25:40;7.17;;;4.50;;
8683;SDS011;4379;59.744;18.206;2023-12-20T13:28:08;4.40;;;4.10;;
8683;SDS011;4379;59.744;18.206;2023-12-20T13:30:35;4.67;;;4.37;;
8683;SDS011;4379;59.744;18.206;2023-12-20T13:33:04;4.77;;;4.37;;
8683;SDS011;4379;59.744;18.206;2023-12-20T13:35:32;5.00;;;4.63;;
8683;SDS011;4379;59.744;18.206;2023-12-20T13:38:00;4.67;;;4.37;;
8683;SDS011;4379;59.744;18.206;2023-12-20T13:40:27;5.13;;;4.83;;
8683;SDS011;4379;59.744;18.206;2023-12-20T13:42:55;5.30;;;4.90;;
8683;SDS011;4379;59.744;18.206;2023-12-20T13:45:22;5.63;;;5.23;;
8683;SDS011;4379;59.744;18.206;2023-12-20T13:47:49;5.23;;;4.93;;
8683;SDS011;4379;59.744;18.206;2023-12-20T13:50:17;5.37;;;4.97;;
8683;SDS011;4379;59.744;18.206;2023-12-20T13:52:44;4.90;;;4.60;;
8683;SDS011;4379;59.744;18.206;2023-12-20T13:55:13;6.23;;;5.30;;
8683;SDS011;4379;59.744;18.206;2023-12-20T13:57:40;5.93;;;5.43;;
8683;SDS011;4379;59.744;18.206;2023-12-20T14:00:20;5.50;;;5.10;;
8683;SDS011;4379;59.744;18.206;2023-12-20T14:02:48;5.00;;;4.70;;
8683;SDS011;4379;59.744;18.206;2023-12-20T14:05:16;7.07;;;5.77;;
8683;SDS011;4379;59.744;18.206;2023-12-20T14:07:44;5.30;;;4.90;;
8683;SDS011;4379;59.744;18.206;2023-12-20T14:10:13;6.27;;;5.77;;
8683;SDS011;4379;59.744;18.206;2023-12-20T14:12:40;6.00;;;5.40;;
8683;SDS011;4379;59.744;18.206;2023-12-20T14:15:08;6.53;;;5.00;;
8683;SDS011;4379;59.744;18.206;2023-12-20T14:17:37;5.87;;;5.30;;
8683;SDS011;4379;59.744;18.206;2023-12-20T14:20:06;5.00;;;4.50;;
8683;SDS011;4379;59.744;18.206;2023-12-20T14:22:34;4.80;;;4.40;;
8683;SDS011;4379;59.744;18.206;2023-12-20T14:25:01;4.57;;;4.27;;
8683;SDS011;4379;59.744;18.206;2023-12-20T14:27:29;5.07;;;4.67;;
8683;SDS011;4379;59.744;18.206;2023-12-20T14:29:56;4.57;;;4.23;;
8683;SDS011;4379;59.744;18.206;2023-12-20T14:32:24;4.70;;;4.40;;
8683;SDS011;4379;59.744;18.206;2023-12-20T14:34:54;4.50;;;4.20;;
8683;SDS011;4379;59.744;18.206;2023-12-20T14:37:22;4.67;;;4.27;;
8683;SDS011;4379;59.744;18.206;2023-12-20T14:39:49;4.30;;;4.00;;
8683;SDS011;4379;59.744;18.206;2023-12-20T14:42:16;4.40;;;4.00;;
8683;SDS011;4379;59.744;18.206;2023-12-20T14:44:43;4.73;;;4.43;;
8683;SDS011;4379;59.744;18.206;2023-12-20T14:47:10;3.83;;;3.63;;
8683;SDS011;4379;59.744;18.206;2023-12-20T14:49:37;4.50;;;4.20;;
8683;SDS011;4379;59.744;18.206;2023-12-20T14:52:04;3.70;;;3.40;;
8683;SDS011;4379;59.744;18.206;2023-12-20T14:54:32;3.67;;;3.47;;
8683;SDS011;4379;59.744;18.206;2023-12-20T14:56:59;3.53;;;3.33;;
8683;SDS011;4379;59.744;18.206;2023-12-20T14:59:31;3.93;;;3.40;;
8683;SDS011;4379;59.744;18.206;2023-12-20T15:01:59;3.97;;;3.77;;
8683;SDS011;4379;59.744;18.206;2023-12-20T15:04:26;3.60;;;3.33;;
8683;SDS011;4379;59.744;18.206;2023-12-20T15:06:55;3.10;;;2.90;;
8683;SDS011;4379;59.744;18.206;2023-12-20T15:09:23;4.43;;;3.83;;